createdAt,value
2023-05-23T00:01:46.898Z,100479.63
2023-05-23T00:04:18.916Z,100460.59
2023-05-23T00:06:50.915Z,100449.19
2023-05-23T00:09:23.420Z,100461.22
2023-05-23T00:11:53.079Z,100459.56
2023-05-23T00:14:23.801Z,100451.78
2023-05-23T00:16:53.394Z,100444.94
2023-05-23T00:19:23.129Z,100427.63
2023-05-23T00:21:53.938Z,100421.63
2023-05-23T00:24:26.048Z,100421.66
2023-05-23T00:26:55.599Z,100413.78
2023-05-23T00:29:25.101Z,100405.81
2023-05-23T00:31:54.831Z,100414.22
2023-05-23T00:34:24.348Z,100417.63
2023-05-23T00:36:54.412Z,100408.22
2023-05-23T00:39:26.626Z,100415.03
2023-05-23T00:41:56.499Z,100414.13
2023-05-23T00:44:26.097Z,100413.31
2023-05-23T00:46:58.241Z,100409.91
2023-05-23T00:49:28.389Z,100400.44
2023-05-23T00:51:58.054Z,100393.47
2023-05-23T00:54:32.095Z,100402.94
2023-05-23T00:57:01.774Z,100374.53
2023-05-23T00:59:31.524Z,100381.34
2023-05-23T01:02:02.541Z,100379.63
2023-05-23T01:04:34.506Z,100372.84
2023-05-23T01:07:04.830Z,100338.69
2023-05-23T01:09:37.063Z,100327.00
2023-05-23T01:12:16.272Z,100326.66
2023-05-23T01:14:49.408Z,100330.84
2023-05-23T01:17:24.491Z,100323.28
2023-05-23T01:20:13.235Z,100329.38
2023-05-23T01:23:00.512Z,100321.69
2023-05-23T01:25:42.835Z,100323.91
2023-05-23T01:28:18.291Z,100326.31
2023-05-23T01:30:49.106Z,100329.63
2023-05-23T01:33:20.082Z,100337.38
2023-05-23T01:35:49.650Z,100337.31
2023-05-23T01:38:19.273Z,100336.44
2023-05-23T01:40:48.805Z,100329.50
2023-05-23T01:43:21.082Z,100326.06
2023-05-23T01:45:51.164Z,100326.94
2023-05-23T01:48:21.278Z,100322.56
2023-05-23T01:50:50.924Z,100327.75
2023-05-23T01:53:24.908Z,100326.91
2023-05-23T01:55:55.687Z,100325.16
2023-05-23T01:58:27.953Z,100336.31
2023-05-23T02:00:57.585Z,100325.19
2023-05-23T02:03:27.257Z,100320.94
2023-05-23T02:05:56.868Z,100319.25
2023-05-23T02:08:26.383Z,100324.31
2023-05-23T02:10:55.972Z,100308.81
2023-05-23T02:13:28.121Z,100311.50
2023-05-23T02:15:57.680Z,100320.09
2023-05-23T02:18:29.578Z,100319.88
2023-05-23T02:20:59.263Z,100319.69
2023-05-23T02:23:28.821Z,100319.63
2023-05-23T02:25:58.383Z,100333.38
2023-05-23T02:28:30.470Z,100326.84
2023-05-23T02:31:00.246Z,100331.97
2023-05-23T02:33:29.885Z,100332.56
2023-05-23T02:35:59.403Z,100337.56
2023-05-23T02:38:31.038Z,100332.19
2023-05-23T02:41:00.984Z,100332.84
2023-05-23T02:43:33.150Z,100331.25
2023-05-23T02:46:02.795Z,100341.06
2023-05-23T02:48:32.321Z,100335.84
2023-05-23T02:51:02.012Z,100334.94
2023-05-23T02:53:32.089Z,100339.97
2023-05-23T02:56:01.807Z,100343.38
2023-05-23T02:58:35.856Z,100345.03
2023-05-23T03:01:07.595Z,100351.72
2023-05-23T03:03:37.845Z,100347.47
2023-05-23T03:06:07.840Z,100357.09
2023-05-23T03:08:37.375Z,100358.00
2023-05-23T03:11:06.933Z,100359.59
2023-05-23T03:13:39.066Z,100356.16
2023-05-23T03:16:09.092Z,100356.09
2023-05-23T03:18:38.643Z,100355.78
2023-05-23T03:21:08.245Z,100351.66
2023-05-23T03:23:37.808Z,100348.91
2023-05-23T03:26:07.370Z,100351.66
2023-05-23T03:28:39.451Z,100349.88
2023-05-23T03:31:09.091Z,100355.69
2023-05-23T03:33:40.347Z,100357.31
2023-05-23T03:36:10.391Z,100348.84
2023-05-23T03:38:39.910Z,100356.50
2023-05-23T03:41:09.765Z,100350.50
2023-05-23T03:43:41.956Z,100383.34
2023-05-23T03:46:11.731Z,100348.81
2023-05-23T03:48:41.321Z,100339.34
2023-05-23T03:51:11.293Z,100341.63
2023-05-23T03:53:41.072Z,100346.22
2023-05-23T03:56:10.635Z,100344.53
2023-05-23T03:58:42.739Z,100342.88
2023-05-23T04:01:12.311Z,100348.00
2023-05-23T04:03:42.409Z,100342.03
2023-05-23T04:06:13.669Z,100349.69
2023-05-23T04:08:45.381Z,100352.28
2023-05-23T04:11:14.916Z,100350.47
2023-05-23T04:13:47.332Z,100362.47
2023-05-23T04:16:17.262Z,100352.19
2023-05-23T04:18:47.687Z,100358.94
2023-05-23T04:21:17.270Z,100355.50
2023-05-23T04:23:47.385Z,100372.59
2023-05-23T04:26:16.974Z,100376.00
2023-05-23T04:28:50.394Z,100377.50
2023-05-23T04:31:19.930Z,100383.34
2023-05-23T04:33:49.508Z,100380.94
2023-05-23T04:36:19.288Z,100384.25
2023-05-23T04:38:48.881Z,100386.84
2023-05-23T04:41:23.800Z,100391.09
2023-05-23T04:43:58.607Z,100396.00
2023-05-23T04:46:28.499Z,100385.00
2023-05-23T04:48:59.110Z,100392.84
2023-05-23T04:51:28.664Z,100392.63
2023-05-23T04:53:58.240Z,100387.50
2023-05-23T04:56:29.183Z,100390.94
2023-05-23T04:59:01.401Z,100394.16
2023-05-23T05:01:31.579Z,100397.56
2023-05-23T05:04:01.186Z,100386.50
2023-05-23T05:06:31.186Z,100395.94
2023-05-23T05:09:00.756Z,100391.53
2023-05-23T05:11:30.338Z,100425.28
2023-05-23T05:14:02.532Z,100385.66
2023-05-23T05:16:32.190Z,100398.59
2023-05-23T05:19:01.977Z,100393.59
2023-05-23T05:21:31.637Z,100391.63
2023-05-23T05:24:01.809Z,100389.16
2023-05-23T05:26:31.406Z,100404.69
2023-05-23T05:29:03.527Z,100391.19
2023-05-23T05:31:33.100Z,100385.44
2023-05-23T05:34:02.796Z,100394.50
2023-05-23T05:36:32.710Z,100401.63
2023-05-23T05:39:02.282Z,100401.81
2023-05-23T05:41:31.902Z,100399.16
2023-05-23T05:44:03.984Z,100398.09
2023-05-23T05:46:33.536Z,100401.19
2023-05-23T05:49:03.189Z,100414.34
2023-05-23T05:51:32.803Z,100411.69
2023-05-23T05:54:02.379Z,100416.09
2023-05-23T05:56:32.433Z,100417.16
2023-05-23T05:59:04.617Z,100415.38
2023-05-23T06:01:34.953Z,100421.50
2023-05-23T06:04:04.717Z,100437.09
2023-05-23T06:06:34.826Z,100433.72
2023-05-23T06:09:04.377Z,100428.53
2023-05-23T06:11:34.593Z,100429.25
2023-05-23T06:14:07.399Z,100431.00
2023-05-23T06:16:37.500Z,100435.38
2023-05-23T06:19:07.386Z,100436.06
2023-05-23T06:21:36.989Z,100439.59
2023-05-23T06:24:06.635Z,100443.94
2023-05-23T06:26:37.808Z,100440.44
2023-05-23T06:29:09.940Z,100451.53
2023-05-23T06:31:39.694Z,100447.22
2023-05-23T06:34:09.336Z,100450.75
2023-05-23T06:36:38.900Z,100443.81
2023-05-23T06:39:10.125Z,100451.69
2023-05-23T06:41:39.726Z,100449.97
2023-05-23T06:44:11.839Z,100457.91
2023-05-23T06:46:41.344Z,100462.31
2023-05-23T06:49:15.263Z,100460.66
2023-05-23T06:51:45.111Z,100458.06
2023-05-23T06:54:14.778Z,100459.78
2023-05-23T06:56:44.427Z,100457.13
2023-05-23T06:59:16.573Z,100459.72
2023-05-23T07:01:46.183Z,100472.47
2023-05-23T07:04:15.814Z,100471.44
2023-05-23T07:06:45.386Z,100479.16
2023-05-23T07:09:14.909Z,100479.88
2023-05-23T07:11:44.513Z,100484.06
2023-05-23T07:14:16.787Z,100490.03
2023-05-23T07:16:46.422Z,100493.34
2023-05-23T07:19:16.613Z,100490.50
2023-05-23T07:21:46.192Z,100492.06
2023-05-23T07:24:15.758Z,100486.31
2023-05-23T07:26:45.259Z,100485.53
2023-05-23T07:29:17.442Z,100482.09
2023-05-23T07:31:46.973Z,100483.88
2023-05-23T07:34:16.537Z,100482.28
2023-05-23T07:36:46.127Z,100488.06
2023-05-23T07:39:15.712Z,100483.19
2023-05-23T07:41:45.339Z,100503.03
2023-05-23T07:44:17.551Z,100496.44
2023-05-23T07:46:47.146Z,100490.09
2023-05-23T07:49:16.784Z,100513.56
2023-05-23T07:51:46.380Z,100488.72
2023-05-23T07:54:16.816Z,100501.75
2023-05-23T07:56:46.553Z,100493.22
2023-05-23T07:59:18.765Z,100512.16
2023-05-23T08:01:50.701Z,100540.78
2023-05-23T08:04:20.616Z,100540.22
2023-05-23T08:07:04.418Z,100569.84
2023-05-23T08:09:35.317Z,100586.47
2023-05-23T08:12:04.879Z,100623.91
2023-05-23T08:14:49.741Z,100702.53
2023-05-23T08:17:20.787Z,100853.47
2023-05-23T08:19:50.494Z,100994.69
2023-05-23T08:22:20.047Z,101056.94
2023-05-23T08:24:49.617Z,101105.41
2023-05-23T08:27:19.177Z,101132.56
2023-05-23T08:29:52.888Z,101152.28
2023-05-23T08:32:22.601Z,101163.03
2023-05-23T08:34:52.364Z,101190.19
2023-05-23T08:37:21.976Z,101209.00
2023-05-23T08:39:52.315Z,101225.56
2023-05-23T08:42:21.957Z,101220.78
2023-05-23T08:44:55.028Z,101224.34
2023-05-23T08:47:24.618Z,101231.13
2023-05-23T08:49:55.778Z,101240.66
2023-05-23T08:52:28.205Z,101241.38
2023-05-23T08:54:57.857Z,101248.66
2023-05-23T08:57:28.952Z,101239.34
2023-05-23T09:00:01.193Z,101230.63
2023-05-23T09:02:30.909Z,101235.78
2023-05-23T09:05:00.588Z,101232.38
2023-05-23T09:07:31.907Z,101225.06
2023-05-23T09:10:01.484Z,101225.13
2023-05-23T09:12:31.063Z,101216.28
2023-05-23T09:15:03.454Z,101218.28
2023-05-23T09:17:34.312Z,101214.41
2023-05-23T09:20:05.084Z,101214.03
2023-05-23T09:22:34.651Z,101212.56
2023-05-23T09:25:04.977Z,101205.47
2023-05-23T09:27:34.582Z,101199.63
2023-05-23T09:30:11.712Z,101197.25
2023-05-23T09:32:42.535Z,101188.75
2023-05-23T09:35:14.580Z,101190.44
2023-05-23T09:37:47.092Z,101177.31
2023-05-23T09:40:18.164Z,101178.81
2023-05-23T09:42:49.579Z,101176.41
2023-05-23T09:45:21.705Z,101184.50
2023-05-23T09:47:54.775Z,101188.56
2023-05-23T09:50:27.260Z,101198.22
2023-05-23T09:52:56.778Z,101203.31
2023-05-23T09:55:26.659Z,101187.47
2023-05-23T09:57:57.838Z,101209.09
2023-05-23T10:00:30.231Z,101208.88
2023-05-23T10:03:11.083Z,101208.56
2023-05-23T10:05:44.710Z,101217.00
2023-05-23T10:08:18.012Z,101223.50
2023-05-23T10:11:17.454Z,101234.69
2023-05-23T10:13:48.577Z,101231.59
2023-05-23T10:16:22.669Z,101234.72
2023-05-23T10:18:57.879Z,101241.03
2023-05-23T10:21:28.615Z,101243.56
2023-05-23T10:23:58.279Z,101247.84
2023-05-23T10:26:27.916Z,101259.56
2023-05-23T10:28:58.549Z,101251.31
2023-05-23T10:31:31.357Z,101250.28
2023-05-23T10:34:06.128Z,101251.16
2023-05-23T10:36:39.261Z,101245.25
2023-05-23T10:39:13.451Z,101247.53
2023-05-23T10:41:47.950Z,101269.38
2023-05-23T10:44:21.462Z,101268.78
2023-05-23T10:46:58.990Z,101281.34
2023-05-23T10:49:40.867Z,101292.84
2023-05-23T10:52:11.553Z,101307.50
2023-05-23T10:54:45.813Z,101320.81
2023-05-23T10:57:19.767Z,101341.53
2023-05-23T10:59:49.758Z,101340.81
2023-05-23T11:02:23.036Z,101351.75
2023-05-23T11:05:21.639Z,101356.53
2023-05-23T11:08:09.433Z,101369.97
2023-05-23T11:10:57.333Z,101381.06
2023-05-23T11:13:27.279Z,101370.78
2023-05-23T11:15:56.935Z,101392.16
2023-05-23T11:18:31.341Z,101399.66
2023-05-23T11:21:01.677Z,101400.56
2023-05-23T11:23:43.526Z,101425.81
2023-05-23T11:26:33.991Z,101435.66
2023-05-23T11:29:04.285Z,101458.63
2023-05-23T11:31:33.943Z,101454.91
2023-05-23T11:34:06.235Z,101462.16
2023-05-23T11:36:36.144Z,101467.25
2023-05-23T11:39:06.307Z,101485.81
2023-05-23T11:41:38.177Z,101496.91
2023-05-23T11:44:14.349Z,101513.78
2023-05-23T11:46:43.985Z,101515.84
2023-05-23T11:49:16.425Z,101509.47
2023-05-23T11:51:46.070Z,101515.84
2023-05-23T11:54:15.806Z,101517.28
2023-05-23T11:56:45.380Z,101538.88
2023-05-23T11:59:14.948Z,101559.34
2023-05-23T12:01:44.686Z,101557.25
2023-05-23T12:04:16.923Z,101568.13
2023-05-23T12:06:49.717Z,101550.44
2023-05-23T12:09:19.824Z,101551.25
2023-05-23T12:11:49.410Z,101582.03
2023-05-23T12:14:20.411Z,101574.88
2023-05-23T12:16:50.132Z,101601.09
2023-05-23T12:19:22.713Z,101606.22
2023-05-23T12:21:52.566Z,101618.47
2023-05-23T12:24:23.243Z,101614.41
2023-05-23T12:26:53.764Z,101604.22
2023-05-23T12:29:24.278Z,101590.97
2023-05-23T12:31:54.369Z,101597.75
2023-05-23T12:34:26.684Z,101585.03
2023-05-23T12:37:10.465Z,101595.38
2023-05-23T12:39:47.936Z,101604.06
2023-05-23T12:42:17.536Z,101597.59
2023-05-23T12:44:48.784Z,101603.28
2023-05-23T12:47:18.445Z,101596.44
2023-05-23T12:49:50.690Z,101603.94
2023-05-23T12:52:20.249Z,101600.78
2023-05-23T12:54:49.813Z,101599.44
2023-05-23T12:57:19.390Z,101603.53
2023-05-23T12:59:48.984Z,101606.44
2023-05-23T13:02:18.559Z,101620.03
2023-05-23T13:04:50.814Z,101622.88
2023-05-23T13:07:20.416Z,101618.63
2023-05-23T13:09:49.942Z,101618.22
2023-05-23T13:12:19.568Z,101619.31
2023-05-23T13:14:49.298Z,101606.16
2023-05-23T13:17:18.853Z,101643.81
2023-05-23T13:19:51.637Z,101613.88
2023-05-23T13:22:21.208Z,101640.03
2023-05-23T13:24:50.862Z,101626.69
2023-05-23T13:27:21.644Z,101621.91
2023-05-23T13:29:51.239Z,101631.81
2023-05-23T13:32:20.888Z,101627.88
2023-05-23T13:34:53.077Z,101628.75
2023-05-23T13:37:22.653Z,101629.31
2023-05-23T13:39:52.265Z,101648.91
2023-05-23T13:42:21.848Z,101643.28
2023-05-23T13:44:51.431Z,101648.84
2023-05-23T13:47:21.008Z,101650.94
2023-05-23T13:49:53.392Z,101647.84
2023-05-23T13:52:22.981Z,101636.19
2023-05-23T13:54:52.560Z,101636.19
2023-05-23T13:57:22.452Z,101639.06
2023-05-23T13:59:52.041Z,101644.28
2023-05-23T14:02:21.830Z,101638.22
2023-05-23T14:04:54.177Z,101624.31
2023-05-23T14:07:23.786Z,101642.66
2023-05-23T14:09:53.364Z,101667.69
2023-05-23T14:12:22.946Z,101657.91
2023-05-23T14:14:52.563Z,101647.41
2023-05-23T14:17:23.503Z,101659.53
2023-05-23T14:19:55.741Z,101650.16
2023-05-23T14:22:25.498Z,101650.44
2023-05-23T14:24:55.007Z,101650.38
2023-05-23T14:27:24.558Z,101665.31
2023-05-23T14:29:54.071Z,101654.81
2023-05-23T14:32:25.096Z,101652.66
2023-05-23T14:34:57.269Z,101665.59
2023-05-23T14:37:26.883Z,101673.81
2023-05-23T14:39:56.488Z,101660.72
2023-05-23T14:42:26.667Z,101668.88
2023-05-23T14:44:56.740Z,101666.22
2023-05-23T14:47:26.669Z,101674.19
2023-05-23T14:49:58.808Z,101671.53
2023-05-23T14:52:28.410Z,101678.63
2023-05-23T14:54:58.000Z,101675.50
2023-05-23T14:57:27.641Z,101681.47
2023-05-23T14:59:57.407Z,101680.31
2023-05-23T15:02:27.030Z,101685.59
2023-05-23T15:04:59.237Z,101684.41
2023-05-23T15:07:28.856Z,101673.31
2023-05-23T15:09:58.409Z,101682.56
2023-05-23T15:12:27.969Z,101694.59
2023-05-23T15:15:03.408Z,101683.38
2023-05-23T15:17:33.148Z,101689.81
2023-05-23T15:20:07.252Z,101697.09
2023-05-23T15:22:39.743Z,101698.72
2023-05-23T15:25:11.024Z,101690.44
2023-05-23T15:27:40.684Z,101701.28
2023-05-23T15:30:11.842Z,101698.28
2023-05-23T15:32:41.649Z,101691.75
2023-05-23T15:35:18.897Z,101693.84
2023-05-23T15:37:49.268Z,101700.47
2023-05-23T15:40:18.834Z,101713.78
2023-05-23T15:42:48.337Z,101713.09
2023-05-23T15:45:18.419Z,101719.38
2023-05-23T15:47:47.981Z,101707.59
2023-05-23T15:50:20.300Z,101694.25
2023-05-23T15:52:49.870Z,101709.75
2023-05-23T15:55:19.631Z,101709.53
2023-05-23T15:57:49.205Z,101697.91
2023-05-23T16:00:19.271Z,101659.91
2023-05-23T16:02:48.845Z,101670.09
2023-05-23T16:05:20.968Z,101695.78
2023-05-23T16:07:50.489Z,101672.38
2023-05-23T16:10:20.404Z,101680.44
2023-05-23T16:12:49.947Z,101696.38
2023-05-23T16:15:19.614Z,101713.66
2023-05-23T16:17:49.177Z,101702.50
2023-05-23T16:20:24.470Z,101708.91
2023-05-23T16:22:54.173Z,101705.34
2023-05-23T16:25:24.798Z,101701.22
2023-05-23T16:27:58.651Z,101704.13
2023-05-23T16:30:32.937Z,101697.50
2023-05-23T16:33:02.597Z,101707.66
2023-05-23T16:35:34.759Z,101725.34
2023-05-23T16:38:04.341Z,101720.50
2023-05-23T16:40:33.957Z,101728.19
2023-05-23T16:43:04.042Z,101748.72
2023-05-23T16:45:33.595Z,101755.28
2023-05-23T16:48:03.696Z,101737.19
2023-05-23T16:50:36.026Z,101750.59
2023-05-23T16:53:05.576Z,101743.16
2023-05-23T16:55:35.147Z,101724.91
2023-05-23T16:58:04.712Z,101713.38
2023-05-23T17:00:35.551Z,101731.84
2023-05-23T17:03:06.113Z,101734.75
2023-05-23T17:05:40.477Z,101725.63
2023-05-23T17:08:12.300Z,101724.88
2023-05-23T17:11:00.176Z,101715.00
2023-05-23T17:13:32.596Z,101725.00
2023-05-23T17:16:05.395Z,101719.47
2023-05-23T17:18:41.964Z,101706.41
2023-05-23T17:21:17.164Z,101723.59
2023-05-23T17:23:53.151Z,101722.28
2023-05-23T17:26:41.554Z,101714.81
2023-05-23T17:29:15.123Z,101740.75
2023-05-23T17:31:46.163Z,101749.53
2023-05-23T17:34:23.208Z,101729.78
2023-05-23T17:36:57.790Z,101745.31
2023-05-23T17:39:35.370Z,101753.41
2023-05-23T17:42:11.539Z,101753.25
2023-05-23T17:44:41.291Z,101750.31
2023-05-23T17:47:14.721Z,101743.09
2023-05-23T17:49:44.589Z,101762.69
2023-05-23T17:52:16.914Z,101757.00
2023-05-23T17:54:46.432Z,101753.94
2023-05-23T17:57:16.332Z,101743.94
2023-05-23T17:59:46.098Z,101754.88
2023-05-23T18:02:15.651Z,101762.53
2023-05-23T18:04:45.540Z,101760.78
2023-05-23T18:07:19.335Z,101748.97
2023-05-23T18:09:48.995Z,101747.53
2023-05-23T18:12:19.233Z,101751.72
2023-05-23T18:14:49.604Z,101746.38
2023-05-23T18:17:19.750Z,101742.09
2023-05-23T18:19:49.655Z,101725.94
2023-05-23T18:22:21.808Z,101723.19
2023-05-23T18:24:51.373Z,101718.44
2023-05-23T18:27:20.970Z,101709.03
2023-05-23T18:29:50.557Z,101700.13
2023-05-23T18:32:20.373Z,101696.03
2023-05-23T18:34:49.895Z,101686.59
2023-05-23T18:37:22.080Z,101686.41
2023-05-23T18:39:51.766Z,101694.44
2023-05-23T18:42:21.337Z,101691.16
2023-05-23T18:44:50.889Z,101675.00
2023-05-23T18:47:20.544Z,101670.75
2023-05-23T18:49:50.133Z,101673.94
2023-05-23T18:52:22.322Z,101661.59
2023-05-23T18:54:54.004Z,101672.06
2023-05-23T18:57:23.580Z,101667.81
2023-05-23T18:59:53.498Z,101674.47
2023-05-23T19:02:23.174Z,101675.53
2023-05-23T19:04:52.838Z,101670.66
2023-05-23T19:07:24.986Z,101673.78
2023-05-23T19:09:54.497Z,101670.41
2023-05-23T19:12:24.090Z,101682.78
2023-05-23T19:14:53.716Z,101681.53
2023-05-23T19:17:23.324Z,101687.13
2023-05-23T19:19:52.952Z,101690.25
2023-05-23T19:22:27.706Z,101698.06
2023-05-23T19:24:57.706Z,101703.66
2023-05-23T19:27:27.264Z,101695.63
2023-05-23T19:29:56.845Z,101709.31
2023-05-23T19:32:26.462Z,101713.88
2023-05-23T19:34:56.658Z,101710.31
2023-05-23T19:37:29.032Z,101706.25
2023-05-23T19:39:59.097Z,101700.41
2023-05-23T19:42:28.641Z,101698.84
2023-05-23T19:44:58.342Z,101707.53
2023-05-23T19:47:30.166Z,101702.19
2023-05-23T19:50:00.571Z,101712.19
2023-05-23T19:52:32.746Z,101713.69
2023-05-23T19:55:03.656Z,101717.44
2023-05-23T19:57:33.898Z,101716.34
2023-05-23T20:00:04.105Z,101719.63
2023-05-23T20:02:33.764Z,101717.44
2023-05-23T20:05:03.339Z,101718.25
2023-05-23T20:07:36.519Z,101728.31
2023-05-23T20:10:06.818Z,101719.31
2023-05-23T20:12:36.402Z,101731.09
2023-05-23T20:15:07.766Z,101736.44
2023-05-23T20:17:37.865Z,101743.78
2023-05-23T20:20:08.997Z,101728.31
2023-05-23T20:22:41.387Z,101723.09
2023-05-23T20:25:11.675Z,101721.22
2023-05-23T20:27:41.229Z,101718.84
2023-05-23T20:30:12.609Z,101721.00
2023-05-23T20:32:42.804Z,101727.34
2023-05-23T20:35:12.496Z,101718.34
2023-05-23T20:37:44.646Z,101725.09
2023-05-23T20:40:15.166Z,101726.75
2023-05-23T20:42:45.215Z,101720.41
2023-05-23T20:45:15.629Z,101716.84
2023-05-23T20:47:46.508Z,101721.19
2023-05-23T20:50:17.592Z,101721.13
2023-05-23T20:52:49.688Z,101715.06
2023-05-23T20:55:20.405Z,101718.16
2023-05-23T20:57:49.909Z,101703.47
2023-05-23T21:00:21.700Z,101719.41
2023-05-23T21:02:51.709Z,101711.81
2023-05-23T21:05:21.521Z,101713.59
2023-05-23T21:07:53.691Z,101709.91
2023-05-23T21:10:23.283Z,101705.75
2023-05-23T21:12:52.843Z,101693.47
2023-05-23T21:15:22.768Z,101693.91
2023-05-23T21:17:52.590Z,101686.97
2023-05-23T21:20:22.637Z,101692.56
2023-05-23T21:22:54.768Z,101683.78
2023-05-23T21:25:24.375Z,101680.97
2023-05-23T21:27:53.975Z,101682.56
2023-05-23T21:30:24.529Z,101691.28
2023-05-23T21:32:56.010Z,101687.22
2023-05-23T21:35:25.679Z,101686.22
2023-05-23T21:37:57.976Z,101686.03
2023-05-23T21:40:28.078Z,101686.53
2023-05-23T21:42:57.701Z,101684.88
2023-05-23T21:45:27.336Z,101691.19
2023-05-23T21:47:56.940Z,101686.91
2023-05-23T21:50:26.574Z,101698.13
2023-05-23T21:52:58.728Z,101689.19
2023-05-23T21:55:28.349Z,101690.47
2023-05-23T21:57:57.876Z,101695.41
2023-05-23T22:00:27.522Z,101690.47
2023-05-23T22:02:57.175Z,101690.06
2023-05-23T22:05:26.877Z,101688.69
2023-05-23T22:07:59.052Z,101680.91
2023-05-23T22:10:28.714Z,101684.34
2023-05-23T22:12:58.453Z,101687.91
2023-05-23T22:15:28.052Z,101687.22
2023-05-23T22:17:57.760Z,101684.34
2023-05-23T22:20:28.090Z,101676.63
2023-05-23T22:23:02.330Z,101677.59
2023-05-23T22:25:32.722Z,101682.28
2023-05-23T22:28:02.285Z,101679.47
2023-05-23T22:30:31.907Z,101669.69
2023-05-23T22:33:02.032Z,101679.97
2023-05-23T22:35:32.252Z,101687.47
2023-05-23T22:38:04.415Z,101691.06
2023-05-23T22:40:33.972Z,101680.78
2023-05-23T22:43:04.290Z,101687.56
2023-05-23T22:45:40.472Z,101690.81
2023-05-23T22:48:11.585Z,101697.56
2023-05-23T22:50:43.311Z,101693.91
2023-05-23T22:53:16.958Z,101699.63
2023-05-23T22:55:46.494Z,101695.09
2023-05-23T22:58:16.167Z,101695.97
2023-05-23T23:00:46.367Z,101699.34
2023-05-23T23:03:16.556Z,101700.91
2023-05-23T23:05:46.583Z,101695.09
2023-05-23T23:08:19.563Z,101693.28
2023-05-23T23:10:49.332Z,101695.78
2023-05-23T23:13:18.889Z,101673.63
2023-05-23T23:15:50.424Z,101686.88
2023-05-23T23:18:20.014Z,101691.41
2023-05-23T23:20:49.693Z,101691.41
2023-05-23T23:23:21.856Z,101688.38
2023-05-23T23:25:52.679Z,101689.06
2023-05-23T23:28:22.918Z,101677.41
2023-05-23T23:30:52.509Z,101689.06
2023-05-23T23:33:22.048Z,101681.19
2023-05-23T23:35:51.963Z,101673.47
2023-05-23T23:38:24.108Z,101682.72
2023-05-23T23:40:53.725Z,101673.06
2023-05-23T23:43:23.295Z,101671.25
2023-05-23T23:45:52.870Z,101676.78
2023-05-23T23:48:22.429Z,101669.28
2023-05-23T23:50:52.032Z,101661.06
2023-05-23T23:53:24.201Z,101663.25
2023-05-23T23:55:53.813Z,101664.94
2023-05-23T23:58:23.326Z,101648.34
